sensor_id;sensor_type;location;lat;lon;timestamp;P1;durP1;ratioP1;P2;durP2;ratioP2
73850;SDS011;62190;51.548;5.688;2023-06-22T00:00:03;10.60;;;8.20;;
73850;SDS011;62190;51.548;5.688;2023-06-22T00:02:33;10.23;;;7.45;;
73850;SDS011;62190;51.548;5.688;2023-06-22T00:05:01;11.38;;;8.00;;
73850;SDS011;62190;51.548;5.688;2023-06-22T00:07:28;10.68;;;7.85;;
73850;SDS011;62190;51.548;5.688;2023-06-22T00:09:55;13.90;;;8.25;;
73850;SDS011;62190;51.548;5.688;2023-06-22T00:12:23;11.83;;;7.95;;
73850;SDS011;62190;51.548;5.688;2023-06-22T00:14:52;11.12;;;8.65;;
73850;SDS011;62190;51.548;5.688;2023-06-22T00:17:19;11.78;;;8.33;;
73850;SDS011;62190;51.548;5.688;2023-06-22T00:19:48;13.48;;;9.00;;
73850;SDS011;62190;51.548;5.688;2023-06-22T00:22:17;13.55;;;9.60;;
73850;SDS011;62190;51.548;5.688;2023-06-22T00:24:46;16.32;;;9.38;;
73850;SDS011;62190;51.548;5.688;2023-06-22T00:27:13;12.65;;;9.85;;
73850;SDS011;62190;51.548;5.688;2023-06-22T00:29:41;13.30;;;9.93;;
73850;SDS011;62190;51.548;5.688;2023-06-22T00:32:09;12.90;;;10.55;;
73850;SDS011;62190;51.548;5.688;2023-06-22T00:34:37;12.45;;;9.55;;
73850;SDS011;62190;51.548;5.688;2023-06-22T00:37:04;15.85;;;10.78;;
73850;SDS011;62190;51.548;5.688;2023-06-22T00:39:31;14.73;;;10.40;;
73850;SDS011;62190;51.548;5.688;2023-06-22T00:41:59;15.13;;;10.90;;
73850;SDS011;62190;51.548;5.688;2023-06-22T00:44:26;15.55;;;10.23;;
73850;SDS011;62190;51.548;5.688;2023-06-22T00:46:54;17.73;;;11.55;;
73850;SDS011;62190;51.548;5.688;2023-06-22T00:49:21;17.82;;;11.57;;
73850;SDS011;62190;51.548;5.688;2023-06-22T00:51:48;13.55;;;10.90;;
73850;SDS011;62190;51.548;5.688;2023-06-22T00:54:16;17.00;;;11.93;;
73850;SDS011;62190;51.548;5.688;2023-06-22T00:56:45;16.82;;;10.95;;
73850;SDS011;62190;51.548;5.688;2023-06-22T00:59:13;12.88;;;10.78;;
73850;SDS011;62190;51.548;5.688;2023-06-22T01:01:42;16.07;;;12.20;;
73850;SDS011;62190;51.548;5.688;2023-06-22T01:04:09;16.70;;;11.93;;
73850;SDS011;62190;51.548;5.688;2023-06-22T01:06:54;13.05;;;11.60;;
73850;SDS011;62190;51.548;5.688;2023-06-22T01:09:27;16.82;;;12.80;;
73850;SDS011;62190;51.548;5.688;2023-06-22T01:11:54;16.85;;;12.00;;
73850;SDS011;62190;51.548;5.688;2023-06-22T01:14:26;15.83;;;12.80;;
73850;SDS011;62190;51.548;5.688;2023-06-22T01:17:08;15.32;;;11.88;;
73850;SDS011;62190;51.548;5.688;2023-06-22T01:22:17;17.32;;;11.73;;
73850;SDS011;62190;51.548;5.688;2023-06-22T01:24:57;18.00;;;12.70;;
73850;SDS011;62190;51.548;5.688;2023-06-22T01:30:27;16.82;;;12.50;;
73850;SDS011;62190;51.548;5.688;2023-06-22T01:32:58;15.72;;;12.15;;
73850;SDS011;62190;51.548;5.688;2023-06-22T01:35:26;17.92;;;12.35;;
73850;SDS011;62190;51.548;5.688;2023-06-22T01:37:55;17.17;;;12.25;;
73850;SDS011;62190;51.548;5.688;2023-06-22T01:40:23;21.55;;;13.20;;
73850;SDS011;62190;51.548;5.688;2023-06-22T01:42:52;16.20;;;12.25;;
73850;SDS011;62190;51.548;5.688;2023-06-22T01:45:20;15.60;;;11.88;;
73850;SDS011;62190;51.548;5.688;2023-06-22T01:47:48;15.50;;;12.90;;
73850;SDS011;62190;51.548;5.688;2023-06-22T01:50:16;17.40;;;12.95;;
73850;SDS011;62190;51.548;5.688;2023-06-22T01:52:45;14.80;;;12.40;;
73850;SDS011;62190;51.548;5.688;2023-06-22T01:55:14;17.55;;;12.58;;
73850;SDS011;62190;51.548;5.688;2023-06-22T01:57:41;16.40;;;12.63;;
73850;SDS011;62190;51.548;5.688;2023-06-22T02:00:10;16.25;;;12.75;;
73850;SDS011;62190;51.548;5.688;2023-06-22T02:02:48;14.20;;;12.23;;
73850;SDS011;62190;51.548;5.688;2023-06-22T02:05:15;16.52;;;12.63;;
73850;SDS011;62190;51.548;5.688;2023-06-22T02:07:56;18.30;;;13.10;;
73850;SDS011;62190;51.548;5.688;2023-06-22T02:10:28;19.60;;;12.75;;
73850;SDS011;62190;51.548;5.688;2023-06-22T02:12:57;17.07;;;12.43;;
73850;SDS011;62190;51.548;5.688;2023-06-22T02:15:25;19.40;;;13.55;;
73850;SDS011;62190;51.548;5.688;2023-06-22T02:17:53;19.65;;;14.23;;
73850;SDS011;62190;51.548;5.688;2023-06-22T02:20:20;20.57;;;14.07;;
73850;SDS011;62190;51.548;5.688;2023-06-22T02:22:52;18.12;;;14.18;;
73850;SDS011;62190;51.548;5.688;2023-06-22T02:25:21;18.98;;;15.25;;
73850;SDS011;62190;51.548;5.688;2023-06-22T02:27:48;20.02;;;15.05;;
73850;SDS011;62190;51.548;5.688;2023-06-22T02:30:16;20.72;;;15.25;;
73850;SDS011;62190;51.548;5.688;2023-06-22T02:32:43;22.82;;;15.65;;
73850;SDS011;62190;51.548;5.688;2023-06-22T02:35:12;18.48;;;14.60;;
73850;SDS011;62190;51.548;5.688;2023-06-22T02:37:40;20.68;;;15.50;;
73850;SDS011;62190;51.548;5.688;2023-06-22T02:40:07;17.48;;;14.15;;
73850;SDS011;62190;51.548;5.688;2023-06-22T02:42:36;20.72;;;15.98;;
73850;SDS011;62190;51.548;5.688;2023-06-22T02:45:05;18.15;;;14.47;;
73850;SDS011;62190;51.548;5.688;2023-06-22T02:47:33;18.60;;;15.25;;
73850;SDS011;62190;51.548;5.688;2023-06-22T02:50:00;17.20;;;13.68;;
73850;SDS011;62190;51.548;5.688;2023-06-22T02:52:29;19.60;;;14.58;;
73850;SDS011;62190;51.548;5.688;2023-06-22T02:54:57;23.90;;;15.70;;
73850;SDS011;62190;51.548;5.688;2023-06-22T02:57:24;22.10;;;14.83;;
73850;SDS011;62190;51.548;5.688;2023-06-22T02:59:52;22.25;;;15.58;;
73850;SDS011;62190;51.548;5.688;2023-06-22T03:02:20;20.55;;;15.55;;
73850;SDS011;62190;51.548;5.688;2023-06-22T03:04:48;21.62;;;15.72;;
73850;SDS011;62190;51.548;5.688;2023-06-22T03:07:15;24.07;;;16.75;;
73850;SDS011;62190;51.548;5.688;2023-06-22T03:09:43;23.45;;;15.43;;
73850;SDS011;62190;51.548;5.688;2023-06-22T03:12:10;22.07;;;16.02;;
73850;SDS011;62190;51.548;5.688;2023-06-22T03:14:37;22.45;;;15.70;;
73850;SDS011;62190;51.548;5.688;2023-06-22T03:17:05;21.00;;;16.10;;
73850;SDS011;62190;51.548;5.688;2023-06-22T03:19:32;18.17;;;15.43;;
73850;SDS011;62190;51.548;5.688;2023-06-22T03:22:00;22.87;;;15.85;;
73850;SDS011;62190;51.548;5.688;2023-06-22T03:24:29;20.40;;;15.78;;
73850;SDS011;62190;51.548;5.688;2023-06-22T03:26:56;21.07;;;17.20;;
73850;SDS011;62190;51.548;5.688;2023-06-22T03:29:24;20.80;;;15.88;;
73850;SDS011;62190;51.548;5.688;2023-06-22T03:31:52;21.95;;;16.42;;
73850;SDS011;62190;51.548;5.688;2023-06-22T03:34:20;22.32;;;17.40;;
73850;SDS011;62190;51.548;5.688;2023-06-22T03:36:49;25.23;;;17.77;;
73850;SDS011;62190;51.548;5.688;2023-06-22T03:39:16;22.25;;;16.62;;
73850;SDS011;62190;51.548;5.688;2023-06-22T03:41:45;20.97;;;15.60;;
73850;SDS011;62190;51.548;5.688;2023-06-22T03:44:14;25.12;;;17.80;;
73850;SDS011;62190;51.548;5.688;2023-06-22T03:46:41;23.27;;;16.80;;
73850;SDS011;62190;51.548;5.688;2023-06-22T03:49:09;20.92;;;16.60;;
73850;SDS011;62190;51.548;5.688;2023-06-22T03:51:36;24.95;;;18.20;;
73850;SDS011;62190;51.548;5.688;2023-06-22T03:54:04;22.27;;;16.20;;
73850;SDS011;62190;51.548;5.688;2023-06-22T03:56:33;21.42;;;16.30;;
73850;SDS011;62190;51.548;5.688;2023-06-22T03:59:00;22.80;;;17.07;;
73850;SDS011;62190;51.548;5.688;2023-06-22T04:01:29;23.12;;;17.10;;
73850;SDS011;62190;51.548;5.688;2023-06-22T04:03:56;22.62;;;17.10;;
73850;SDS011;62190;51.548;5.688;2023-06-22T04:06:25;25.15;;;16.32;;
73850;SDS011;62190;51.548;5.688;2023-06-22T04:08:52;28.02;;;18.60;;
73850;SDS011;62190;51.548;5.688;2023-06-22T04:11:21;26.02;;;19.15;;
73850;SDS011;62190;51.548;5.688;2023-06-22T04:13:49;20.75;;;16.82;;
73850;SDS011;62190;51.548;5.688;2023-06-22T04:16:18;23.10;;;17.25;;
73850;SDS011;62190;51.548;5.688;2023-06-22T04:18:47;24.65;;;17.98;;
73850;SDS011;62190;51.548;5.688;2023-06-22T04:21:16;23.25;;;17.48;;
73850;SDS011;62190;51.548;5.688;2023-06-22T04:23:45;26.07;;;19.27;;
73850;SDS011;62190;51.548;5.688;2023-06-22T04:26:13;27.50;;;18.37;;
73850;SDS011;62190;51.548;5.688;2023-06-22T04:28:40;24.05;;;19.48;;
73850;SDS011;62190;51.548;5.688;2023-06-22T04:31:08;25.88;;;19.20;;
73850;SDS011;62190;51.548;5.688;2023-06-22T04:33:37;25.88;;;19.05;;
73850;SDS011;62190;51.548;5.688;2023-06-22T04:36:06;25.50;;;19.48;;
73850;SDS011;62190;51.548;5.688;2023-06-22T04:38:35;26.50;;;20.68;;
73850;SDS011;62190;51.548;5.688;2023-06-22T04:41:02;29.80;;;20.43;;
73850;SDS011;62190;51.548;5.688;2023-06-22T04:43:29;25.40;;;19.65;;
73850;SDS011;62190;51.548;5.688;2023-06-22T04:45:57;26.17;;;20.60;;
73850;SDS011;62190;51.548;5.688;2023-06-22T04:48:26;24.67;;;19.70;;
73850;SDS011;62190;51.548;5.688;2023-06-22T04:50:56;24.67;;;18.57;;
73850;SDS011;62190;51.548;5.688;2023-06-22T04:53:25;24.40;;;19.30;;
73850;SDS011;62190;51.548;5.688;2023-06-22T04:55:54;24.67;;;17.95;;
73850;SDS011;62190;51.548;5.688;2023-06-22T04:58:21;21.90;;;16.90;;
73850;SDS011;62190;51.548;5.688;2023-06-22T05:00:50;24.87;;;17.98;;
73850;SDS011;62190;51.548;5.688;2023-06-22T05:03:18;22.93;;;17.95;;
73850;SDS011;62190;51.548;5.688;2023-06-22T05:05:45;23.30;;;17.65;;
73850;SDS011;62190;51.548;5.688;2023-06-22T05:08:13;21.20;;;16.95;;
73850;SDS011;62190;51.548;5.688;2023-06-22T05:10:41;22.48;;;17.52;;
73850;SDS011;62190;51.548;5.688;2023-06-22T05:13:08;22.70;;;18.62;;
73850;SDS011;62190;51.548;5.688;2023-06-22T05:15:35;22.32;;;17.48;;
73850;SDS011;62190;51.548;5.688;2023-06-22T05:18:04;22.75;;;17.37;;
73850;SDS011;62190;51.548;5.688;2023-06-22T05:20:32;22.85;;;17.32;;
73850;SDS011;62190;51.548;5.688;2023-06-22T05:23:01;19.35;;;15.35;;
73850;SDS011;62190;51.548;5.688;2023-06-22T05:25:29;21.93;;;17.10;;
73850;SDS011;62190;51.548;5.688;2023-06-22T05:27:58;19.55;;;16.75;;
73850;SDS011;62190;51.548;5.688;2023-06-22T05:30:25;18.87;;;16.37;;
73850;SDS011;62190;51.548;5.688;2023-06-22T05:32:54;21.73;;;15.23;;
73850;SDS011;62190;51.548;5.688;2023-06-22T05:35:21;21.33;;;15.90;;
73850;SDS011;62190;51.548;5.688;2023-06-22T05:37:48;20.68;;;17.27;;
73850;SDS011;62190;51.548;5.688;2023-06-22T05:40:16;20.77;;;17.25;;
73850;SDS011;62190;51.548;5.688;2023-06-22T05:42:43;23.20;;;18.30;;
73850;SDS011;62190;51.548;5.688;2023-06-22T05:45:11;24.37;;;18.92;;
73850;SDS011;62190;51.548;5.688;2023-06-22T05:47:38;21.87;;;17.95;;
73850;SDS011;62190;51.548;5.688;2023-06-22T05:50:06;25.95;;;18.80;;
73850;SDS011;62190;51.548;5.688;2023-06-22T05:52:34;23.92;;;18.48;;
73850;SDS011;62190;51.548;5.688;2023-06-22T05:55:01;25.68;;;19.05;;
73850;SDS011;62190;51.548;5.688;2023-06-22T05:57:29;23.32;;;18.55;;
73850;SDS011;62190;51.548;5.688;2023-06-22T05:59:56;26.60;;;17.92;;
73850;SDS011;62190;51.548;5.688;2023-06-22T06:02:24;25.10;;;19.20;;
73850;SDS011;62190;51.548;5.688;2023-06-22T06:04:51;22.82;;;18.65;;
73850;SDS011;62190;51.548;5.688;2023-06-22T06:07:19;25.12;;;18.45;;
73850;SDS011;62190;51.548;5.688;2023-06-22T06:09:47;24.05;;;19.10;;
73850;SDS011;62190;51.548;5.688;2023-06-22T06:12:14;25.85;;;21.27;;
73850;SDS011;62190;51.548;5.688;2023-06-22T06:14:41;26.07;;;20.25;;
73850;SDS011;62190;51.548;5.688;2023-06-22T06:17:09;26.23;;;21.55;;
73850;SDS011;62190;51.548;5.688;2023-06-22T06:19:36;26.90;;;21.75;;
73850;SDS011;62190;51.548;5.688;2023-06-22T06:22:04;34.63;;;20.55;;
73850;SDS011;62190;51.548;5.688;2023-06-22T06:24:31;24.77;;;20.23;;
73850;SDS011;62190;51.548;5.688;2023-06-22T06:26:58;27.20;;;20.15;;
73850;SDS011;62190;51.548;5.688;2023-06-22T06:29:25;24.27;;;20.85;;
73850;SDS011;62190;51.548;5.688;2023-06-22T06:31:53;25.27;;;19.57;;
73850;SDS011;62190;51.548;5.688;2023-06-22T06:34:20;25.02;;;20.27;;
73850;SDS011;62190;51.548;5.688;2023-06-22T06:36:47;25.97;;;20.72;;
73850;SDS011;62190;51.548;5.688;2023-06-22T06:39:15;26.48;;;18.60;;
73850;SDS011;62190;51.548;5.688;2023-06-22T06:41:42;23.95;;;18.60;;
73850;SDS011;62190;51.548;5.688;2023-06-22T06:44:09;23.57;;;18.25;;
73850;SDS011;62190;51.548;5.688;2023-06-22T06:46:36;26.25;;;18.02;;
73850;SDS011;62190;51.548;5.688;2023-06-22T06:49:04;23.75;;;18.05;;
73850;SDS011;62190;51.548;5.688;2023-06-22T06:51:31;22.65;;;17.40;;
73850;SDS011;62190;51.548;5.688;2023-06-22T06:53:58;20.52;;;17.77;;
73850;SDS011;62190;51.548;5.688;2023-06-22T06:56:26;22.02;;;17.90;;
73850;SDS011;62190;51.548;5.688;2023-06-22T06:58:53;22.02;;;17.27;;
73850;SDS011;62190;51.548;5.688;2023-06-22T07:01:21;20.60;;;18.15;;
73850;SDS011;62190;51.548;5.688;2023-06-22T07:03:48;22.82;;;18.62;;
73850;SDS011;62190;51.548;5.688;2023-06-22T07:06:17;23.50;;;18.70;;
73850;SDS011;62190;51.548;5.688;2023-06-22T07:08:45;21.95;;;18.35;;
73850;SDS011;62190;51.548;5.688;2023-06-22T07:11:12;22.85;;;18.70;;
73850;SDS011;62190;51.548;5.688;2023-06-22T07:13:39;21.68;;;17.77;;
73850;SDS011;62190;51.548;5.688;2023-06-22T07:16:07;23.90;;;18.52;;
73850;SDS011;62190;51.548;5.688;2023-06-22T07:18:34;24.85;;;19.30;;
73850;SDS011;62190;51.548;5.688;2023-06-22T07:21:01;22.20;;;18.17;;
73850;SDS011;62190;51.548;5.688;2023-06-22T07:23:30;25.82;;;18.17;;
73850;SDS011;62190;51.548;5.688;2023-06-22T07:25:58;22.35;;;17.90;;
73850;SDS011;62190;51.548;5.688;2023-06-22T07:28:28;20.37;;;17.45;;
73850;SDS011;62190;51.548;5.688;2023-06-22T07:30:59;19.67;;;17.23;;
73850;SDS011;62190;51.548;5.688;2023-06-22T07:33:27;20.55;;;16.27;;
73850;SDS011;62190;51.548;5.688;2023-06-22T07:35:54;21.95;;;17.15;;
73850;SDS011;62190;51.548;5.688;2023-06-22T07:38:21;22.80;;;17.82;;
73850;SDS011;62190;51.548;5.688;2023-06-22T07:40:49;19.62;;;16.35;;
73850;SDS011;62190;51.548;5.688;2023-06-22T07:43:18;20.50;;;15.58;;
73850;SDS011;62190;51.548;5.688;2023-06-22T07:45:49;19.12;;;16.95;;
73850;SDS011;62190;51.548;5.688;2023-06-22T07:48:20;20.25;;;15.83;;
73850;SDS011;62190;51.548;5.688;2023-06-22T07:50:47;18.95;;;16.37;;
73850;SDS011;62190;51.548;5.688;2023-06-22T07:53:15;19.70;;;16.02;;
73850;SDS011;62190;51.548;5.688;2023-06-22T07:55:42;20.15;;;16.77;;
73850;SDS011;62190;51.548;5.688;2023-06-22T07:58:10;21.27;;;17.35;;
73850;SDS011;62190;51.548;5.688;2023-06-22T08:00:37;19.17;;;15.93;;
73850;SDS011;62190;51.548;5.688;2023-06-22T08:03:06;17.82;;;15.90;;
73850;SDS011;62190;51.548;5.688;2023-06-22T08:05:33;22.50;;;16.23;;
73850;SDS011;62190;51.548;5.688;2023-06-22T08:08:03;17.27;;;15.48;;
73850;SDS011;62190;51.548;5.688;2023-06-22T08:10:33;19.57;;;17.12;;
73850;SDS011;62190;51.548;5.688;2023-06-22T08:13:08;20.70;;;16.77;;
73850;SDS011;62190;51.548;5.688;2023-06-22T08:15:39;17.10;;;15.25;;
73850;SDS011;62190;51.548;5.688;2023-06-22T08:18:06;20.30;;;16.82;;
73850;SDS011;62190;51.548;5.688;2023-06-22T08:20:33;23.32;;;17.37;;
73850;SDS011;62190;51.548;5.688;2023-06-22T08:23:01;21.48;;;17.73;;
73850;SDS011;62190;51.548;5.688;2023-06-22T08:25:30;23.62;;;17.05;;
73850;SDS011;62190;51.548;5.688;2023-06-22T08:28:00;22.17;;;16.25;;
73850;SDS011;62190;51.548;5.688;2023-06-22T08:30:28;22.10;;;17.15;;
73850;SDS011;62190;51.548;5.688;2023-06-22T08:32:55;22.13;;;17.92;;
73850;SDS011;62190;51.548;5.688;2023-06-22T08:35:22;19.17;;;16.67;;
73850;SDS011;62190;51.548;5.688;2023-06-22T08:37:50;22.90;;;17.20;;
73850;SDS011;62190;51.548;5.688;2023-06-22T08:40:19;20.43;;;17.07;;
73850;SDS011;62190;51.548;5.688;2023-06-22T08:42:47;24.35;;;18.20;;
73850;SDS011;62190;51.548;5.688;2023-06-22T08:45:14;20.43;;;16.15;;
73850;SDS011;62190;51.548;5.688;2023-06-22T08:47:42;24.10;;;17.02;;
73850;SDS011;62190;51.548;5.688;2023-06-22T08:50:10;17.73;;;15.75;;
73850;SDS011;62190;51.548;5.688;2023-06-22T08:52:40;20.00;;;16.45;;
73850;SDS011;62190;51.548;5.688;2023-06-22T08:55:07;20.43;;;16.02;;
73850;SDS011;62190;51.548;5.688;2023-06-22T08:57:35;19.65;;;17.50;;
73850;SDS011;62190;51.548;5.688;2023-06-22T09:00:07;19.98;;;16.42;;
73850;SDS011;62190;51.548;5.688;2023-06-22T09:05:06;18.92;;;16.60;;
73850;SDS011;62190;51.548;5.688;2023-06-22T09:07:34;18.95;;;16.62;;
73850;SDS011;62190;51.548;5.688;2023-06-22T09:10:01;20.02;;;16.35;;
73850;SDS011;62190;51.548;5.688;2023-06-22T09:12:32;19.30;;;15.45;;
73850;SDS011;62190;51.548;5.688;2023-06-22T09:15:01;21.62;;;17.80;;
73850;SDS011;62190;51.548;5.688;2023-06-22T09:17:29;22.25;;;17.35;;
73850;SDS011;62190;51.548;5.688;2023-06-22T09:19:56;21.25;;;16.42;;
73850;SDS011;62190;51.548;5.688;2023-06-22T09:22:24;18.40;;;16.40;;
73850;SDS011;62190;51.548;5.688;2023-06-22T09:24:53;19.90;;;16.73;;
73850;SDS011;62190;51.548;5.688;2023-06-22T09:27:20;19.80;;;16.40;;
73850;SDS011;62190;51.548;5.688;2023-06-22T09:29:48;18.98;;;16.57;;
73850;SDS011;62190;51.548;5.688;2023-06-22T09:32:16;18.45;;;15.03;;
73850;SDS011;62190;51.548;5.688;2023-06-22T09:34:43;19.27;;;16.67;;
73850;SDS011;62190;51.548;5.688;2023-06-22T09:37:10;19.12;;;15.70;;
73850;SDS011;62190;51.548;5.688;2023-06-22T09:39:38;19.17;;;16.80;;
73850;SDS011;62190;51.548;5.688;2023-06-22T09:42:05;19.05;;;17.05;;
73850;SDS011;62190;51.548;5.688;2023-06-22T09:44:33;20.68;;;17.60;;
73850;SDS011;62190;51.548;5.688;2023-06-22T09:47:00;21.20;;;17.52;;
73850;SDS011;62190;51.548;5.688;2023-06-22T09:49:28;21.33;;;17.50;;
73850;SDS011;62190;51.548;5.688;2023-06-22T09:51:55;21.50;;;18.15;;
73850;SDS011;62190;51.548;5.688;2023-06-22T09:54:22;19.05;;;16.67;;
73850;SDS011;62190;51.548;5.688;2023-06-22T09:56:50;20.90;;;18.17;;
73850;SDS011;62190;51.548;5.688;2023-06-22T09:59:17;20.72;;;17.87;;
73850;SDS011;62190;51.548;5.688;2023-06-22T10:01:44;20.85;;;16.70;;
73850;SDS011;62190;51.548;5.688;2023-06-22T10:04:12;18.50;;;16.25;;
73850;SDS011;62190;51.548;5.688;2023-06-22T10:06:39;18.73;;;16.73;;
73850;SDS011;62190;51.548;5.688;2023-06-22T10:09:07;18.70;;;16.70;;
73850;SDS011;62190;51.548;5.688;2023-06-22T10:11:34;20.12;;;16.65;;
73850;SDS011;62190;51.548;5.688;2023-06-22T10:14:02;18.65;;;16.55;;
73850;SDS011;62190;51.548;5.688;2023-06-22T10:16:30;19.42;;;15.95;;
73850;SDS011;62190;51.548;5.688;2023-06-22T10:18:58;18.17;;;15.75;;
73850;SDS011;62190;51.548;5.688;2023-06-22T10:21:25;19.77;;;16.67;;
73850;SDS011;62190;51.548;5.688;2023-06-22T10:23:54;21.00;;;16.12;;
73850;SDS011;62190;51.548;5.688;2023-06-22T10:26:21;19.20;;;16.12;;
73850;SDS011;62190;51.548;5.688;2023-06-22T10:28:49;21.55;;;15.90;;
73850;SDS011;62190;51.548;5.688;2023-06-22T10:31:17;19.37;;;15.75;;
73850;SDS011;62190;51.548;5.688;2023-06-22T10:33:44;18.10;;;14.90;;
73850;SDS011;62190;51.548;5.688;2023-06-22T10:36:11;17.02;;;14.85;;
73850;SDS011;62190;51.548;5.688;2023-06-22T10:38:38;16.77;;;15.00;;
73850;SDS011;62190;51.548;5.688;2023-06-22T10:41:06;17.32;;;14.87;;
73850;SDS011;62190;51.548;5.688;2023-06-22T10:43:33;16.05;;;13.68;;
73850;SDS011;62190;51.548;5.688;2023-06-22T10:46:01;16.77;;;14.73;;
73850;SDS011;62190;51.548;5.688;2023-06-22T10:48:28;19.12;;;14.73;;
73850;SDS011;62190;51.548;5.688;2023-06-22T10:50:55;19.45;;;14.93;;
73850;SDS011;62190;51.548;5.688;2023-06-22T10:53:23;18.77;;;14.83;;
73850;SDS011;62190;51.548;5.688;2023-06-22T10:55:50;14.45;;;12.88;;
73850;SDS011;62190;51.548;5.688;2023-06-22T10:58:18;19.07;;;15.55;;
73850;SDS011;62190;51.548;5.688;2023-06-22T11:00:46;23.32;;;19.50;;
73850;SDS011;62190;51.548;5.688;2023-06-22T11:03:13;26.57;;;20.35;;
73850;SDS011;62190;51.548;5.688;2023-06-22T11:05:41;28.07;;;23.22;;
73850;SDS011;62190;51.548;5.688;2023-06-22T11:08:08;32.67;;;25.35;;
73850;SDS011;62190;51.548;5.688;2023-06-22T11:10:35;37.05;;;28.27;;
73850;SDS011;62190;51.548;5.688;2023-06-22T11:13:03;40.17;;;31.37;;
73850;SDS011;62190;51.548;5.688;2023-06-22T11:15:33;39.85;;;30.97;;
73850;SDS011;62190;51.548;5.688;2023-06-22T11:18:02;42.35;;;29.35;;
73850;SDS011;62190;51.548;5.688;2023-06-22T11:20:31;52.55;;;35.23;;
73850;SDS011;62190;51.548;5.688;2023-06-22T11:23:00;45.15;;;33.08;;
73850;SDS011;62190;51.548;5.688;2023-06-22T11:25:28;48.83;;;35.38;;
73850;SDS011;62190;51.548;5.688;2023-06-22T11:27:56;52.50;;;36.53;;
73850;SDS011;62190;51.548;5.688;2023-06-22T11:30:25;64.35;;;44.55;;
73850;SDS011;62190;51.548;5.688;2023-06-22T11:32:53;75.90;;;44.83;;
73850;SDS011;62190;51.548;5.688;2023-06-22T11:35:20;62.95;;;44.00;;
73850;SDS011;62190;51.548;5.688;2023-06-22T11:37:50;79.53;;;50.12;;
73850;SDS011;62190;51.548;5.688;2023-06-22T11:40:23;79.55;;;49.30;;
73850;SDS011;62190;51.548;5.688;2023-06-22T11:42:53;101.40;;;53.85;;
73850;SDS011;62190;51.548;5.688;2023-06-22T11:45:23;65.75;;;46.53;;
73850;SDS011;62190;51.548;5.688;2023-06-22T11:47:52;74.35;;;49.00;;
73850;SDS011;62190;51.548;5.688;2023-06-22T11:50:26;77.97;;;50.85;;
73850;SDS011;62190;51.548;5.688;2023-06-22T11:52:55;79.40;;;51.88;;
73850;SDS011;62190;51.548;5.688;2023-06-22T11:55:29;92.95;;;56.58;;
73850;SDS011;62190;51.548;5.688;2023-06-22T11:57:57;90.67;;;57.78;;
73850;SDS011;62190;51.548;5.688;2023-06-22T12:00:26;86.65;;;58.08;;
73850;SDS011;62190;51.548;5.688;2023-06-22T12:02:53;82.40;;;57.13;;
73850;SDS011;62190;51.548;5.688;2023-06-22T12:05:21;72.55;;;52.10;;
73850;SDS011;62190;51.548;5.688;2023-06-22T12:07:52;74.47;;;52.30;;
73850;SDS011;62190;51.548;5.688;2023-06-22T12:10:21;76.55;;;52.20;;
73850;SDS011;62190;51.548;5.688;2023-06-22T12:12:53;74.53;;;52.55;;
73850;SDS011;62190;51.548;5.688;2023-06-22T12:15:22;69.00;;;50.75;;
73850;SDS011;62190;51.548;5.688;2023-06-22T12:17:50;68.40;;;52.13;;
73850;SDS011;62190;51.548;5.688;2023-06-22T12:20:19;81.42;;;53.68;;
73850;SDS011;62190;51.548;5.688;2023-06-22T12:22:49;70.47;;;50.35;;
73850;SDS011;62190;51.548;5.688;2023-06-22T12:25:17;77.92;;;55.48;;
73850;SDS011;62190;51.548;5.688;2023-06-22T12:27:45;72.20;;;53.10;;
73850;SDS011;62190;51.548;5.688;2023-06-22T12:30:12;59.45;;;46.58;;
73850;SDS011;62190;51.548;5.688;2023-06-22T12:32:46;70.92;;;52.62;;
73850;SDS011;62190;51.548;5.688;2023-06-22T12:35:14;69.27;;;50.40;;
73850;SDS011;62190;51.548;5.688;2023-06-22T12:37:43;64.07;;;48.48;;
73850;SDS011;62190;51.548;5.688;2023-06-22T12:40:11;58.85;;;48.95;;
73850;SDS011;62190;51.548;5.688;2023-06-22T12:42:51;56.63;;;44.58;;
73850;SDS011;62190;51.548;5.688;2023-06-22T12:45:21;51.55;;;42.70;;
73850;SDS011;62190;51.548;5.688;2023-06-22T12:47:50;48.78;;;42.25;;
73850;SDS011;62190;51.548;5.688;2023-06-22T12:50:21;45.43;;;39.80;;
73850;SDS011;62190;51.548;5.688;2023-06-22T12:52:49;50.25;;;39.65;;
73850;SDS011;62190;51.548;5.688;2023-06-22T12:55:18;44.73;;;37.78;;
73850;SDS011;62190;51.548;5.688;2023-06-22T12:57:46;42.60;;;36.30;;
73850;SDS011;62190;51.548;5.688;2023-06-22T13:00:14;43.45;;;36.42;;
73850;SDS011;62190;51.548;5.688;2023-06-22T13:02:43;47.60;;;36.95;;
73850;SDS011;62190;51.548;5.688;2023-06-22T13:05:12;40.67;;;36.13;;
73850;SDS011;62190;51.548;5.688;2023-06-22T13:07:40;40.63;;;34.88;;
73850;SDS011;62190;51.548;5.688;2023-06-22T13:10:16;39.03;;;34.30;;
73850;SDS011;62190;51.548;5.688;2023-06-22T13:12:51;43.02;;;35.55;;
73850;SDS011;62190;51.548;5.688;2023-06-22T13:15:30;36.00;;;31.62;;
73850;SDS011;62190;51.548;5.688;2023-06-22T13:18:02;36.38;;;32.58;;
73850;SDS011;62190;51.548;5.688;2023-06-22T13:20:38;37.50;;;33.50;;
73850;SDS011;62190;51.548;5.688;2023-06-22T13:23:17;37.80;;;33.25;;
73850;SDS011;62190;51.548;5.688;2023-06-22T13:25:49;35.50;;;31.48;;
73850;SDS011;62190;51.548;5.688;2023-06-22T13:28:19;39.38;;;33.75;;
73850;SDS011;62190;51.548;5.688;2023-06-22T13:30:53;37.08;;;30.65;;
73850;SDS011;62190;51.548;5.688;2023-06-22T13:33:27;40.98;;;33.98;;
73850;SDS011;62190;51.548;5.688;2023-06-22T13:35:56;36.98;;;32.75;;
73850;SDS011;62190;51.548;5.688;2023-06-22T13:38:28;38.60;;;33.53;;
73850;SDS011;62190;51.548;5.688;2023-06-22T13:40:59;39.67;;;31.60;;
73850;SDS011;62190;51.548;5.688;2023-06-22T13:43:29;44.00;;;36.40;;
73850;SDS011;62190;51.548;5.688;2023-06-22T13:45:57;37.85;;;33.83;;
73850;SDS011;62190;51.548;5.688;2023-06-22T13:48:27;37.80;;;31.73;;
73850;SDS011;62190;51.548;5.688;2023-06-22T13:50:57;36.68;;;32.85;;
73850;SDS011;62190;51.548;5.688;2023-06-22T13:53:24;37.05;;;32.63;;
73850;SDS011;62190;51.548;5.688;2023-06-22T13:55:52;35.28;;;31.60;;
73850;SDS011;62190;51.548;5.688;2023-06-22T13:58:20;34.73;;;31.12;;
73850;SDS011;62190;51.548;5.688;2023-06-22T14:00:50;38.88;;;32.38;;
73850;SDS011;62190;51.548;5.688;2023-06-22T14:03:18;32.67;;;28.90;;
73850;SDS011;62190;51.548;5.688;2023-06-22T14:05:48;39.42;;;34.38;;
73850;SDS011;62190;51.548;5.688;2023-06-22T14:08:15;41.83;;;37.45;;
73850;SDS011;62190;51.548;5.688;2023-06-22T14:10:42;52.10;;;40.35;;
73850;SDS011;62190;51.548;5.688;2023-06-22T14:13:10;44.13;;;37.03;;
73850;SDS011;62190;51.548;5.688;2023-06-22T14:15:37;43.92;;;39.13;;
73850;SDS011;62190;51.548;5.688;2023-06-22T14:18:04;45.00;;;38.88;;
73850;SDS011;62190;51.548;5.688;2023-06-22T14:20:31;43.45;;;35.63;;
73850;SDS011;62190;51.548;5.688;2023-06-22T14:22:59;43.78;;;37.38;;
73850;SDS011;62190;51.548;5.688;2023-06-22T14:25:26;43.50;;;37.35;;
73850;SDS011;62190;51.548;5.688;2023-06-22T14:27:54;41.23;;;34.55;;
73850;SDS011;62190;51.548;5.688;2023-06-22T14:30:23;39.30;;;32.90;;
73850;SDS011;62190;51.548;5.688;2023-06-22T14:32:50;41.88;;;33.88;;
73850;SDS011;62190;51.548;5.688;2023-06-22T14:35:17;41.45;;;35.48;;